createdAt,value
2018-09-18T00:01:13.350Z,14.60
2018-09-18T00:05:17.749Z,14.60
2018-09-18T00:09:22.111Z,14.50
2018-09-18T00:13:26.345Z,14.50
2018-09-18T00:17:30.868Z,14.50
2018-09-18T00:21:35.071Z,14.40
2018-09-18T00:25:39.426Z,14.30
2018-09-18T00:29:43.855Z,14.30
2018-09-18T00:33:48.085Z,14.20
2018-09-18T00:37:52.390Z,14.20
2018-09-18T00:41:56.593Z,14.20
2018-09-18T00:46:00.911Z,14.20
2018-09-18T00:50:05.255Z,14.10
2018-09-18T00:54:09.837Z,14.10
2018-09-18T00:58:14.049Z,14.00
2018-09-18T01:02:18.380Z,14.00
2018-09-18T01:06:22.649Z,13.90
2018-09-18T01:10:27.047Z,13.90
2018-09-18T01:14:31.476Z,13.90
2018-09-18T01:18:41.392Z,13.90
2018-09-18T01:22:45.618Z,13.80
2018-09-18T01:26:49.932Z,13.80
2018-09-18T01:30:54.135Z,13.80
2018-09-18T01:34:58.479Z,13.70
2018-09-18T01:39:02.794Z,13.70
2018-09-18T01:43:07.129Z,13.60
2018-09-18T01:47:11.396Z,13.60
2018-09-18T01:51:15.700Z,13.60
2018-09-18T01:55:20.020Z,13.60
2018-09-18T01:59:24.409Z,13.50
2018-09-18T02:03:28.734Z,13.50
2018-09-18T02:07:33.091Z,13.50
2018-09-18T02:11:37.589Z,13.50
2018-09-18T02:15:41.788Z,13.40
2018-09-18T02:19:46.234Z,13.30
2018-09-18T02:23:50.450Z,13.30
2018-09-18T02:27:54.911Z,13.30
2018-09-18T02:31:59.215Z,13.30
2018-09-18T02:36:03.693Z,13.20
2018-09-18T02:40:08.294Z,13.20
2018-09-18T02:44:12.650Z,13.20
2018-09-18T02:48:16.841Z,13.10
2018-09-18T02:52:21.182Z,13.10
2018-09-18T02:56:25.495Z,13.20
2018-09-18T03:00:29.910Z,13.10
2018-09-18T03:04:34.120Z,13.10
2018-09-18T03:08:38.623Z,13.10
2018-09-18T03:12:42.836Z,13.10
2018-09-18T03:16:47.082Z,13.00
2018-09-18T03:20:51.389Z,13.00
2018-09-18T03:24:55.655Z,12.90
2018-09-18T03:29:00.029Z,12.90
2018-09-18T03:33:04.365Z,12.80
2018-09-18T03:37:08.888Z,12.80
2018-09-18T03:41:13.106Z,12.80
2018-09-18T03:45:17.457Z,12.80
2018-09-18T03:49:21.678Z,12.70
2018-09-18T03:53:25.976Z,12.70
2018-09-18T03:57:30.222Z,12.70
2018-09-18T04:01:34.615Z,12.60
2018-09-18T04:05:38.902Z,12.60
2018-09-18T04:09:43.467Z,12.60
2018-09-18T04:13:47.857Z,12.60
2018-09-18T04:17:52.172Z,12.60
2018-09-18T04:21:56.497Z,12.60
2018-09-18T04:26:00.717Z,12.50
2018-09-18T04:30:05.163Z,12.50
2018-09-18T04:34:09.567Z,12.50
2018-09-18T04:38:13.902Z,12.40
2018-09-18T04:42:18.153Z,12.40
2018-09-18T04:46:22.969Z,12.50
2018-09-18T04:50:27.185Z,12.50
2018-09-18T04:54:31.382Z,12.50
2018-09-18T04:58:35.601Z,12.50
2018-09-18T05:02:40.408Z,12.60
2018-09-18T05:06:44.736Z,12.60
2018-09-18T05:10:49.019Z,12.60
2018-09-18T05:14:53.584Z,12.60
2018-09-18T05:18:57.996Z,12.60
2018-09-18T05:23:02.295Z,12.60
2018-09-18T05:27:06.647Z,12.60
2018-09-18T05:31:11.980Z,12.70
2018-09-18T05:35:16.204Z,12.70
2018-09-18T05:39:20.624Z,12.90
2018-09-18T05:43:25.019Z,12.90
2018-09-18T05:47:29.234Z,13.00
2018-09-18T05:51:33.829Z,13.10
2018-09-18T05:55:38.065Z,13.20
2018-09-18T05:59:43.449Z,13.30
2018-09-18T06:03:47.661Z,13.40
2018-09-18T06:07:52.017Z,13.50
2018-09-18T06:11:56.253Z,13.60
2018-09-18T06:16:00.488Z,13.70
2018-09-18T06:20:04.996Z,13.80
2018-09-18T06:24:09.485Z,14.00
2018-09-18T06:28:14.796Z,14.20
2018-09-18T06:32:19.049Z,14.30
2018-09-18T06:36:23.448Z,14.50
2018-09-18T06:40:27.677Z,14.70
2018-09-18T06:44:32.036Z,15.00
2018-09-18T06:48:36.465Z,15.20
2018-09-18T06:52:40.822Z,15.40
2018-09-18T06:56:45.238Z,15.70
2018-09-18T07:00:49.468Z,16.00
2018-09-18T07:04:53.697Z,16.30
2018-09-18T07:08:58.149Z,16.60
2018-09-18T07:13:02.401Z,17.00
2018-09-18T07:17:06.740Z,17.30
2018-09-18T07:21:10.981Z,17.70
2018-09-18T07:25:15.209Z,18.00
2018-09-18T07:29:19.635Z,18.30
2018-09-18T07:33:23.832Z,18.60
2018-09-18T07:37:28.501Z,19.00
2018-09-18T07:41:32.728Z,19.40
2018-09-18T07:45:37.011Z,19.70
2018-09-18T07:49:41.227Z,20.10
2018-09-18T07:53:45.541Z,20.30
2018-09-18T07:57:49.756Z,20.50
2018-09-18T08:01:53.996Z,20.60
2018-09-18T08:05:58.211Z,20.80
2018-09-18T08:10:02.457Z,21.00
2018-09-18T08:14:07.905Z,21.30
2018-09-18T08:18:12.177Z,21.40
2018-09-18T08:22:16.682Z,21.60
2018-09-18T08:26:21.086Z,21.70
2018-09-18T08:30:26.821Z,21.60
2018-09-18T08:34:31.594Z,21.60
2018-09-18T08:38:35.798Z,21.80
2018-09-18T08:42:40.419Z,22.00
2018-09-18T08:46:45.222Z,22.10
2018-09-18T08:50:49.816Z,22.50
2018-09-18T08:54:54.142Z,23.30
2018-09-18T08:58:58.591Z,23.20
2018-09-18T09:03:02.832Z,23.10
2018-09-18T09:07:07.172Z,23.50
2018-09-18T09:11:11.698Z,23.50
2018-09-18T09:15:22.034Z,24.90
2018-09-18T09:19:26.221Z,24.60
2018-09-18T09:23:31.099Z,24.40
2018-09-18T09:27:35.631Z,24.70
2018-09-18T09:31:39.914Z,24.10
2018-09-18T09:35:44.250Z,24.00
2018-09-18T09:39:48.470Z,24.60
2018-09-18T09:43:53.451Z,24.90
2018-09-18T09:47:57.809Z,24.80
2018-09-18T09:52:02.442Z,25.00
2018-09-18T09:56:06.689Z,25.30
2018-09-18T10:00:16.262Z,26.00
2018-09-18T10:04:20.675Z,25.90
2018-09-18T10:08:25.516Z,26.40
2018-09-18T10:12:30.046Z,26.60
2018-09-18T10:16:35.279Z,26.30
2018-09-18T10:20:41.094Z,27.00
2018-09-18T10:24:45.873Z,27.40
2018-09-18T10:28:50.618Z,27.30
2018-09-18T10:32:58.300Z,28.70
2018-09-18T10:37:02.743Z,29.90
2018-09-18T10:41:07.560Z,30.30
2018-09-18T10:45:11.934Z,30.20
2018-09-18T10:49:16.277Z,30.90
2018-09-18T10:53:21.084Z,30.80
2018-09-18T10:57:25.377Z,29.70
2018-09-18T11:01:29.734Z,29.80
2018-09-18T11:05:34.727Z,29.90
2018-09-18T11:09:39.035Z,30.30
2018-09-18T11:13:48.357Z,31.10
2018-09-18T11:17:52.680Z,31.50
2018-09-18T11:21:57.273Z,31.00
2018-09-18T11:26:03.745Z,32.10
2018-09-18T11:30:08.061Z,32.40
2018-09-18T11:34:13.762Z,32.60
2018-09-18T11:38:17.983Z,32.00
2018-09-18T11:42:22.311Z,32.50
2018-09-18T11:46:26.795Z,31.80
2018-09-18T11:50:31.037Z,32.90
2018-09-18T11:54:36.379Z,33.10
2018-09-18T11:58:40.585Z,33.60
2018-09-18T12:02:46.360Z,33.20
2018-09-18T12:06:50.583Z,33.40
2018-09-18T12:10:56.948Z,32.80
2018-09-18T12:15:01.261Z,32.60
2018-09-18T12:19:05.569Z,32.70
2018-09-18T12:23:09.944Z,30.80
2018-09-18T12:27:14.406Z,29.50
2018-09-18T12:31:18.809Z,31.90
2018-09-18T12:35:23.505Z,33.20
2018-09-18T12:39:27.865Z,33.90
2018-09-18T12:43:32.214Z,35.10
2018-09-18T12:47:40.336Z,35.30
2018-09-18T12:51:44.555Z,34.20
2018-09-18T12:55:49.192Z,34.30
2018-09-18T12:59:54.398Z,35.40
2018-09-18T13:03:59.805Z,36.00
2018-09-18T13:08:04.132Z,35.60
2018-09-18T13:12:10.792Z,35.60
2018-09-18T13:16:15.202Z,35.30
2018-09-18T13:20:19.564Z,35.40
2018-09-18T13:24:24.035Z,35.10
2018-09-18T13:28:28.839Z,34.70
2018-09-18T13:32:33.616Z,35.90
2018-09-18T13:36:38.479Z,36.50
2018-09-18T13:40:42.807Z,36.10
2018-09-18T13:44:47.538Z,35.90
2018-09-18T13:48:52.134Z,35.90
2018-09-18T13:52:56.567Z,36.60
2018-09-18T13:57:01.548Z,36.40
2018-09-18T14:01:06.065Z,34.20
2018-09-18T14:05:10.539Z,31.80
2018-09-18T14:09:14.777Z,30.20
2018-09-18T14:13:24.330Z,29.20
2018-09-18T14:17:29.449Z,28.90
2018-09-18T14:21:34.508Z,28.50
2018-09-18T14:25:40.310Z,28.90
2018-09-18T14:29:45.469Z,28.80
2018-09-18T14:33:50.348Z,30.80
2018-09-18T14:37:55.409Z,30.60
2018-09-18T14:42:01.272Z,30.10
2018-09-18T14:46:07.505Z,29.20
2018-09-18T14:50:12.713Z,29.30
2018-09-18T14:54:17.596Z,28.80
2018-09-18T14:58:25.689Z,27.70
2018-09-18T15:02:31.420Z,26.70
2018-09-18T15:06:36.572Z,26.40
2018-09-18T15:10:41.380Z,26.40
2018-09-18T15:14:46.628Z,26.10
2018-09-18T15:18:50.982Z,25.50
2018-09-18T15:22:55.697Z,24.90
2018-09-18T15:27:00.585Z,24.80
2018-09-18T15:31:06.179Z,24.60
2018-09-18T15:35:11.692Z,24.30
2018-09-18T15:39:17.011Z,23.80
2018-09-18T15:43:22.308Z,23.60
2018-09-18T15:47:27.581Z,23.20
2018-09-18T15:51:32.302Z,22.70
2018-09-18T15:55:37.604Z,22.70
2018-09-18T15:59:43.335Z,22.60
2018-09-18T16:03:48.240Z,22.60
2018-09-18T16:07:52.699Z,22.70
2018-09-18T16:11:57.868Z,22.60
2018-09-18T16:16:02.351Z,22.40
2018-09-18T16:20:06.725Z,22.30
2018-09-18T16:24:11.169Z,22.10
2018-09-18T16:28:15.418Z,22.00
2018-09-18T16:32:19.743Z,21.90
2018-09-18T16:36:24.072Z,21.60
2018-09-18T16:40:29.032Z,21.30
2018-09-18T16:44:33.540Z,21.10
2018-09-18T16:48:38.975Z,20.70
2018-09-18T16:52:43.193Z,20.30
2018-09-18T16:56:47.477Z,20.00
2018-09-18T17:00:51.691Z,19.70
2018-09-18T17:04:56.246Z,19.50
2018-09-18T17:09:00.828Z,19.20
2018-09-18T17:13:05.220Z,18.90
2018-09-18T17:17:09.495Z,18.70
2018-09-18T17:21:13.930Z,18.60
2018-09-18T17:25:19.324Z,18.50
2018-09-18T17:29:23.547Z,18.50
2018-09-18T17:33:27.854Z,18.50
2018-09-18T17:37:32.341Z,18.60
2018-09-18T17:41:36.768Z,18.70
2018-09-18T17:45:41.032Z,18.60
2018-09-18T17:49:45.374Z,18.50
2018-09-18T17:53:49.593Z,18.40
2018-09-18T17:57:54.106Z,18.40
2018-09-18T18:01:58.754Z,18.30
2018-09-18T18:06:03.467Z,18.20
2018-09-18T18:10:08.543Z,18.20
2018-09-18T18:14:13.235Z,18.10
2018-09-18T18:18:17.758Z,18.10
2018-09-18T18:22:22.863Z,18.20
2018-09-18T18:26:27.545Z,18.30
2018-09-18T18:30:34.874Z,18.30
2018-09-18T18:34:39.661Z,18.40
2018-09-18T18:38:44.485Z,18.40
2018-09-18T18:42:49.500Z,18.50
2018-09-18T18:46:54.773Z,18.40
2018-09-18T18:50:59.137Z,18.20
2018-09-18T18:55:03.434Z,18.00
2018-09-18T18:59:07.681Z,17.70
2018-09-18T19:03:11.981Z,17.50
2018-09-18T19:07:16.233Z,17.30
2018-09-18T19:11:21.551Z,17.10
2018-09-18T19:15:26.168Z,17.00
2018-09-18T19:19:30.612Z,16.90
2018-09-18T19:23:35.366Z,16.80
2018-09-18T19:27:39.814Z,16.60
2018-09-18T19:31:44.133Z,16.60
2018-09-18T19:35:49.584Z,16.50
2018-09-18T19:39:53.911Z,16.30
2018-09-18T19:43:58.250Z,16.20
2018-09-18T19:48:02.492Z,16.20
2018-09-18T19:52:07.235Z,16.10
2018-09-18T19:56:11.440Z,16.00
2018-09-18T20:00:15.965Z,15.90
2018-09-18T20:04:20.547Z,15.90
2018-09-18T20:08:25.238Z,15.90
2018-09-18T20:12:37.299Z,15.80
2018-09-18T20:16:41.694Z,15.70
2018-09-18T20:20:45.947Z,15.60
2018-09-18T20:24:50.231Z,15.60
2018-09-18T20:28:54.563Z,15.60
2018-09-18T20:32:58.752Z,15.50
2018-09-18T20:37:03.096Z,15.50
2018-09-18T20:41:07.409Z,15.40
2018-09-18T20:45:11.730Z,15.30
2018-09-18T20:49:15.929Z,15.30
2018-09-18T20:53:20.188Z,15.30
2018-09-18T20:57:24.406Z,15.20
2018-09-18T21:01:28.709Z,15.20
2018-09-18T21:05:32.951Z,15.10
2018-09-18T21:09:37.335Z,15.10
2018-09-18T21:13:41.524Z,15.00
2018-09-18T21:17:45.910Z,15.00
2018-09-18T21:21:50.171Z,15.00
2018-09-18T21:26:13.946Z,14.90
2018-09-18T21:30:18.505Z,14.90
2018-09-18T21:34:22.823Z,14.80
2018-09-18T21:38:27.007Z,14.70
2018-09-18T21:42:31.256Z,14.70
2018-09-18T21:46:35.451Z,14.70
2018-09-18T21:50:40.127Z,14.60
2018-09-18T21:54:44.311Z,14.50
2018-09-18T21:58:48.653Z,14.50
2018-09-18T22:02:52.833Z,14.50
2018-09-18T22:06:57.225Z,14.40
2018-09-18T22:11:01.440Z,14.40
2018-09-18T22:15:05.766Z,14.30
2018-09-18T22:19:09.980Z,14.30
2018-09-18T22:23:14.179Z,14.30
2018-09-18T22:27:18.357Z,14.20
2018-09-18T22:31:22.678Z,14.20
2018-09-18T22:35:26.882Z,14.10
2018-09-18T22:39:31.125Z,14.10
2018-09-18T22:43:35.303Z,14.00
2018-09-18T22:47:39.604Z,14.00
2018-09-18T22:51:43.812Z,14.00
2018-09-18T22:55:48.032Z,14.00
2018-09-18T22:59:52.474Z,14.00
2018-09-18T23:03:56.728Z,14.00
2018-09-18T23:08:00.925Z,13.80
2018-09-18T23:12:05.242Z,13.80
2018-09-18T23:16:09.424Z,13.90
2018-09-18T23:20:13.700Z,13.80
2018-09-18T23:24:18.029Z,13.70
2018-09-18T23:28:22.251Z,13.60
2018-09-18T23:32:26.436Z,13.60
2018-09-18T23:36:30.765Z,13.50
2018-09-18T23:40:34.985Z,13.50
2018-09-18T23:44:39.275Z,13.50
2018-09-18T23:48:43.572Z,13.50
2018-09-18T23:52:47.889Z,13.40
2018-09-18T23:56:52.083Z,13.40
